sensor_id;sensor_type;location;lat;lon;timestamp;temperature;humidity
29241;DHT22;16268;49.880;8.648;2022-12-29T00:02:11;11.00;99.90
29241;DHT22;16268;49.880;8.648;2022-12-29T00:04:36;11.10;99.90
29241;DHT22;16268;49.880;8.648;2022-12-29T00:07:02;11.00;99.90
29241;DHT22;16268;49.880;8.648;2022-12-29T00:09:30;11.10;99.90
29241;DHT22;16268;49.880;8.648;2022-12-29T00:11:55;11.10;99.90
29241;DHT22;16268;49.880;8.648;2022-12-29T00:14:21;11.10;99.90
29241;DHT22;16268;49.880;8.648;2022-12-29T00:17:05;11.10;99.90
29241;DHT22;16268;49.880;8.648;2022-12-29T00:19:31;11.10;99.90
29241;DHT22;16268;49.880;8.648;2022-12-29T00:22:15;11.10;99.90
29241;DHT22;16268;49.880;8.648;2022-12-29T00:25:00;11.10;99.90
29241;DHT22;16268;49.880;8.648;2022-12-29T00:27:34;11.10;99.90
29241;DHT22;16268;49.880;8.648;2022-12-29T00:30:22;11.10;99.90
29241;DHT22;16268;49.880;8.648;2022-12-29T00:33:19;11.00;99.90
29241;DHT22;16268;49.880;8.648;2022-12-29T00:36:07;11.10;99.90
29241;DHT22;16268;49.880;8.648;2022-12-29T00:38:35;11.10;99.90
29241;DHT22;16268;49.880;8.648;2022-12-29T00:41:20;11.10;99.90
29241;DHT22;16268;49.880;8.648;2022-12-29T00:44:06;11.10;99.90
29241;DHT22;16268;49.880;8.648;2022-12-29T00:46:37;11.00;99.90
29241;DHT22;16268;49.880;8.648;2022-12-29T00:49:03;11.00;99.90
29241;DHT22;16268;49.880;8.648;2022-12-29T00:51:48;10.90;99.90
29241;DHT22;16268;49.880;8.648;2022-12-29T00:54:15;10.90;99.90
29241;DHT22;16268;49.880;8.648;2022-12-29T00:56:40;10.90;99.90
29241;DHT22;16268;49.880;8.648;2022-12-29T00:59:09;10.90;99.90
29241;DHT22;16268;49.880;8.648;2022-12-29T01:01:36;10.90;99.90
29241;DHT22;16268;49.880;8.648;2022-12-29T01:04:02;10.90;99.90
29241;DHT22;16268;49.880;8.648;2022-12-29T01:06:27;10.90;99.90
29241;DHT22;16268;49.880;8.648;2022-12-29T01:08:53;10.90;99.90
29241;DHT22;16268;49.880;8.648;2022-12-29T01:11:38;11.00;99.90
29241;DHT22;16268;49.880;8.648;2022-12-29T01:14:04;11.00;99.90
29241;DHT22;16268;49.880;8.648;2022-12-29T01:16:29;11.00;99.90
29241;DHT22;16268;49.880;8.648;2022-12-29T01:18:55;11.00;99.90
29241;DHT22;16268;49.880;8.648;2022-12-29T01:21:21;11.00;99.90
29241;DHT22;16268;49.880;8.648;2022-12-29T01:23:46;11.00;99.90
29241;DHT22;16268;49.880;8.648;2022-12-29T01:26:14;11.10;99.90
29241;DHT22;16268;49.880;8.648;2022-12-29T01:28:40;11.10;99.90
29241;DHT22;16268;49.880;8.648;2022-12-29T01:31:11;11.20;99.90
29241;DHT22;16268;49.880;8.648;2022-12-29T01:33:37;11.20;99.90
29241;DHT22;16268;49.880;8.648;2022-12-29T01:36:04;11.20;99.90
29241;DHT22;16268;49.880;8.648;2022-12-29T01:38:30;11.30;99.90
29241;DHT22;16268;49.880;8.648;2022-12-29T01:40:56;11.30;99.90
29241;DHT22;16268;49.880;8.648;2022-12-29T01:43:48;11.30;99.90
29241;DHT22;16268;49.880;8.648;2022-12-29T01:48:51;11.30;99.90
29241;DHT22;16268;49.880;8.648;2022-12-29T01:51:18;11.30;99.90
29241;DHT22;16268;49.880;8.648;2022-12-29T01:53:45;11.30;99.90
29241;DHT22;16268;49.880;8.648;2022-12-29T01:56:12;11.40;99.90
29241;DHT22;16268;49.880;8.648;2022-12-29T01:58:43;11.40;99.90
29241;DHT22;16268;49.880;8.648;2022-12-29T02:01:11;11.50;99.90
29241;DHT22;16268;49.880;8.648;2022-12-29T02:03:37;11.50;99.90
29241;DHT22;16268;49.880;8.648;2022-12-29T02:06:15;11.40;99.90
29241;DHT22;16268;49.880;8.648;2022-12-29T02:08:43;11.40;99.90
29241;DHT22;16268;49.880;8.648;2022-12-29T02:11:11;11.40;99.90
29241;DHT22;16268;49.880;8.648;2022-12-29T02:13:38;11.50;99.90
29241;DHT22;16268;49.880;8.648;2022-12-29T02:16:21;11.50;99.90
29241;DHT22;16268;49.880;8.648;2022-12-29T02:19:15;11.50;99.90
29241;DHT22;16268;49.880;8.648;2022-12-29T02:22:24;11.50;99.90
29241;DHT22;16268;49.880;8.648;2022-12-29T02:25:15;11.50;99.90
29241;DHT22;16268;49.880;8.648;2022-12-29T02:30:35;11.60;99.90
29241;DHT22;16268;49.880;8.648;2022-12-29T02:38:40;11.60;99.90
29241;DHT22;16268;49.880;8.648;2022-12-29T02:43:45;11.60;99.90
29241;DHT22;16268;49.880;8.648;2022-12-29T02:46:22;11.60;99.90
29241;DHT22;16268;49.880;8.648;2022-12-29T02:49:06;11.60;99.90
29241;DHT22;16268;49.880;8.648;2022-12-29T02:54:09;11.40;99.90
29241;DHT22;16268;49.880;8.648;2022-12-29T02:56:53;11.40;99.90
29241;DHT22;16268;49.880;8.648;2022-12-29T02:59:19;11.40;99.90
29241;DHT22;16268;49.880;8.648;2022-12-29T03:07:36;11.40;99.90
29241;DHT22;16268;49.880;8.648;2022-12-29T03:10:17;11.50;99.90
29241;DHT22;16268;49.880;8.648;2022-12-29T03:16:04;11.50;99.90
29241;DHT22;16268;49.880;8.648;2022-12-29T03:23:46;11.60;99.90
29241;DHT22;16268;49.880;8.648;2022-12-29T03:26:18;11.60;99.90
29241;DHT22;16268;49.880;8.648;2022-12-29T03:28:50;11.60;99.90
29241;DHT22;16268;49.880;8.648;2022-12-29T03:31:17;11.60;99.90
29241;DHT22;16268;49.880;8.648;2022-12-29T03:33:45;11.70;99.90
29241;DHT22;16268;49.880;8.648;2022-12-29T03:36:17;11.60;99.90
29241;DHT22;16268;49.880;8.648;2022-12-29T03:39:05;11.60;99.90
29241;DHT22;16268;49.880;8.648;2022-12-29T03:41:34;11.50;99.90
29241;DHT22;16268;49.880;8.648;2022-12-29T03:44:00;11.50;99.90
29241;DHT22;16268;49.880;8.648;2022-12-29T03:46:25;11.50;99.90
29241;DHT22;16268;49.880;8.648;2022-12-29T03:48:51;11.50;99.90
29241;DHT22;16268;49.880;8.648;2022-12-29T03:51:17;11.50;99.90
29241;DHT22;16268;49.880;8.648;2022-12-29T03:53:42;11.50;99.90
29241;DHT22;16268;49.880;8.648;2022-12-29T03:56:08;11.50;99.90
29241;DHT22;16268;49.880;8.648;2022-12-29T03:58:33;11.50;99.90
29241;DHT22;16268;49.880;8.648;2022-12-29T04:00:59;11.50;99.90
29241;DHT22;16268;49.880;8.648;2022-12-29T04:03:24;11.50;99.90
29241;DHT22;16268;49.880;8.648;2022-12-29T04:05:53;11.50;99.90
29241;DHT22;16268;49.880;8.648;2022-12-29T04:08:18;11.60;99.90
29241;DHT22;16268;49.880;8.648;2022-12-29T04:10:44;11.60;99.90
29241;DHT22;16268;49.880;8.648;2022-12-29T04:13:09;11.50;99.90
29241;DHT22;16268;49.880;8.648;2022-12-29T04:15:36;11.50;99.90
29241;DHT22;16268;49.880;8.648;2022-12-29T04:18:01;11.50;99.90
29241;DHT22;16268;49.880;8.648;2022-12-29T04:20:27;11.50;99.90
29241;DHT22;16268;49.880;8.648;2022-12-29T04:23:11;11.60;99.90
29241;DHT22;16268;49.880;8.648;2022-12-29T04:25:37;11.60;99.90
29241;DHT22;16268;49.880;8.648;2022-12-29T04:28:02;11.60;99.90
29241;DHT22;16268;49.880;8.648;2022-12-29T04:30:28;11.50;99.90
29241;DHT22;16268;49.880;8.648;2022-12-29T04:32:54;11.60;99.90
29241;DHT22;16268;49.880;8.648;2022-12-29T04:35:19;11.60;99.90
29241;DHT22;16268;49.880;8.648;2022-12-29T04:37:45;11.50;99.90
29241;DHT22;16268;49.880;8.648;2022-12-29T04:40:11;11.60;99.90
29241;DHT22;16268;49.880;8.648;2022-12-29T04:42:37;11.60;99.90
29241;DHT22;16268;49.880;8.648;2022-12-29T04:45:02;11.60;99.90
29241;DHT22;16268;49.880;8.648;2022-12-29T04:47:28;11.70;99.90
29241;DHT22;16268;49.880;8.648;2022-12-29T04:49:57;11.60;99.90
29241;DHT22;16268;49.880;8.648;2022-12-29T04:52:22;11.60;99.90
29241;DHT22;16268;49.880;8.648;2022-12-29T04:54:48;11.70;99.90
29241;DHT22;16268;49.880;8.648;2022-12-29T04:57:13;11.70;99.90
29241;DHT22;16268;49.880;8.648;2022-12-29T04:59:39;11.70;99.90
29241;DHT22;16268;49.880;8.648;2022-12-29T05:02:04;11.70;99.90
29241;DHT22;16268;49.880;8.648;2022-12-29T05:04:30;11.70;99.90
29241;DHT22;16268;49.880;8.648;2022-12-29T05:06:57;11.70;99.90
29241;DHT22;16268;49.880;8.648;2022-12-29T05:09:22;11.70;99.90
29241;DHT22;16268;49.880;8.648;2022-12-29T05:11:49;11.80;99.90
29241;DHT22;16268;49.880;8.648;2022-12-29T05:14:14;11.80;99.90
29241;DHT22;16268;49.880;8.648;2022-12-29T05:16:40;11.80;99.90
29241;DHT22;16268;49.880;8.648;2022-12-29T05:19:05;11.80;99.90
29241;DHT22;16268;49.880;8.648;2022-12-29T05:21:31;11.80;99.90
29241;DHT22;16268;49.880;8.648;2022-12-29T05:23:57;11.80;99.90
29241;DHT22;16268;49.880;8.648;2022-12-29T05:26:22;11.80;99.90
29241;DHT22;16268;49.880;8.648;2022-12-29T05:28:48;11.80;99.90
29241;DHT22;16268;49.880;8.648;2022-12-29T05:31:13;11.80;99.90
29241;DHT22;16268;49.880;8.648;2022-12-29T05:33:39;11.90;99.90
29241;DHT22;16268;49.880;8.648;2022-12-29T05:36:08;11.90;99.90
29241;DHT22;16268;49.880;8.648;2022-12-29T05:38:34;11.90;99.90
29241;DHT22;16268;49.880;8.648;2022-12-29T05:41:00;11.90;99.90
29241;DHT22;16268;49.880;8.648;2022-12-29T05:43:26;11.90;99.90
29241;DHT22;16268;49.880;8.648;2022-12-29T05:45:52;12.00;99.90
29241;DHT22;16268;49.880;8.648;2022-12-29T05:48:18;12.00;99.90
29241;DHT22;16268;49.880;8.648;2022-12-29T05:50:48;11.90;99.90
29241;DHT22;16268;49.880;8.648;2022-12-29T05:53:13;12.00;99.90
29241;DHT22;16268;49.880;8.648;2022-12-29T05:55:39;11.90;99.90
29241;DHT22;16268;49.880;8.648;2022-12-29T05:58:04;11.90;99.90
29241;DHT22;16268;49.880;8.648;2022-12-29T06:00:30;11.80;99.90
29241;DHT22;16268;49.880;8.648;2022-12-29T06:02:56;11.80;99.90
29241;DHT22;16268;49.880;8.648;2022-12-29T06:05:21;11.80;99.90
29241;DHT22;16268;49.880;8.648;2022-12-29T06:07:47;11.70;99.90
29241;DHT22;16268;49.880;8.648;2022-12-29T06:10:12;11.70;99.90
29241;DHT22;16268;49.880;8.648;2022-12-29T06:12:38;11.70;99.90
29241;DHT22;16268;49.880;8.648;2022-12-29T06:15:04;11.70;99.90
29241;DHT22;16268;49.880;8.648;2022-12-29T06:17:30;11.70;99.90
29241;DHT22;16268;49.880;8.648;2022-12-29T06:19:55;11.80;99.90
29241;DHT22;16268;49.880;8.648;2022-12-29T06:22:21;11.80;99.90
29241;DHT22;16268;49.880;8.648;2022-12-29T06:24:46;11.80;99.90
29241;DHT22;16268;49.880;8.648;2022-12-29T06:27:12;11.80;99.90
29241;DHT22;16268;49.880;8.648;2022-12-29T06:29:39;11.90;99.90
29241;DHT22;16268;49.880;8.648;2022-12-29T06:32:05;11.90;99.90
29241;DHT22;16268;49.880;8.648;2022-12-29T06:34:31;11.90;99.90
29241;DHT22;16268;49.880;8.648;2022-12-29T06:39:38;11.80;99.90
29241;DHT22;16268;49.880;8.648;2022-12-29T06:42:04;11.70;99.90
29241;DHT22;16268;49.880;8.648;2022-12-29T06:44:29;11.70;99.90
29241;DHT22;16268;49.880;8.648;2022-12-29T06:46:55;11.80;99.90
29241;DHT22;16268;49.880;8.648;2022-12-29T06:49:21;11.80;99.90
29241;DHT22;16268;49.880;8.648;2022-12-29T06:51:46;11.80;99.90
29241;DHT22;16268;49.880;8.648;2022-12-29T06:54:12;11.80;99.90
29241;DHT22;16268;49.880;8.648;2022-12-29T06:56:38;11.90;99.90
29241;DHT22;16268;49.880;8.648;2022-12-29T06:59:03;11.90;99.90
29241;DHT22;16268;49.880;8.648;2022-12-29T07:01:30;11.90;99.90
29241;DHT22;16268;49.880;8.648;2022-12-29T07:03:55;11.90;99.90
29241;DHT22;16268;49.880;8.648;2022-12-29T07:06:21;11.90;99.90
29241;DHT22;16268;49.880;8.648;2022-12-29T07:08:47;12.00;99.90
29241;DHT22;16268;49.880;8.648;2022-12-29T07:11:12;12.00;99.90
29241;DHT22;16268;49.880;8.648;2022-12-29T07:13:38;12.00;99.90
29241;DHT22;16268;49.880;8.648;2022-12-29T07:16:08;12.10;99.90
29241;DHT22;16268;49.880;8.648;2022-12-29T07:18:34;12.00;99.90
29241;DHT22;16268;49.880;8.648;2022-12-29T07:21:00;12.10;99.90
29241;DHT22;16268;49.880;8.648;2022-12-29T07:23:26;12.10;99.90
29241;DHT22;16268;49.880;8.648;2022-12-29T07:26:00;12.10;99.90
29241;DHT22;16268;49.880;8.648;2022-12-29T07:28:25;12.10;99.90
29241;DHT22;16268;49.880;8.648;2022-12-29T07:30:51;12.10;99.90
29241;DHT22;16268;49.880;8.648;2022-12-29T07:33:16;12.10;99.90
29241;DHT22;16268;49.880;8.648;2022-12-29T07:35:42;12.10;99.90
29241;DHT22;16268;49.880;8.648;2022-12-29T07:38:07;12.10;99.90
29241;DHT22;16268;49.880;8.648;2022-12-29T07:40:33;12.10;99.90
29241;DHT22;16268;49.880;8.648;2022-12-29T07:42:58;12.10;99.90
29241;DHT22;16268;49.880;8.648;2022-12-29T07:45:24;12.00;99.90
29241;DHT22;16268;49.880;8.648;2022-12-29T07:47:50;12.10;99.90
29241;DHT22;16268;49.880;8.648;2022-12-29T07:50:15;12.10;99.90
29241;DHT22;16268;49.880;8.648;2022-12-29T07:52:41;12.00;99.90
29241;DHT22;16268;49.880;8.648;2022-12-29T07:55:07;12.00;99.90
29241;DHT22;16268;49.880;8.648;2022-12-29T07:57:32;12.00;99.90
29241;DHT22;16268;49.880;8.648;2022-12-29T07:59:58;12.00;99.90
29241;DHT22;16268;49.880;8.648;2022-12-29T08:02:24;12.00;99.90
29241;DHT22;16268;49.880;8.648;2022-12-29T08:04:51;12.00;99.90
29241;DHT22;16268;49.880;8.648;2022-12-29T08:07:17;12.00;99.90
29241;DHT22;16268;49.880;8.648;2022-12-29T08:09:42;12.00;99.90
29241;DHT22;16268;49.880;8.648;2022-12-29T08:12:09;11.90;99.90
29241;DHT22;16268;49.880;8.648;2022-12-29T08:14:35;12.00;99.90
29241;DHT22;16268;49.880;8.648;2022-12-29T08:17:01;12.00;99.90
29241;DHT22;16268;49.880;8.648;2022-12-29T08:19:27;12.00;99.90
29241;DHT22;16268;49.880;8.648;2022-12-29T08:21:53;11.90;99.90
29241;DHT22;16268;49.880;8.648;2022-12-29T08:24:19;11.90;99.90
29241;DHT22;16268;49.880;8.648;2022-12-29T08:26:44;12.00;99.90
29241;DHT22;16268;49.880;8.648;2022-12-29T08:29:10;12.00;99.90
29241;DHT22;16268;49.880;8.648;2022-12-29T08:31:35;12.10;99.90
29241;DHT22;16268;49.880;8.648;2022-12-29T08:34:01;12.10;99.90
29241;DHT22;16268;49.880;8.648;2022-12-29T08:36:28;12.10;99.90
29241;DHT22;16268;49.880;8.648;2022-12-29T08:38:54;12.10;99.90
29241;DHT22;16268;49.880;8.648;2022-12-29T08:41:19;12.10;99.90
29241;DHT22;16268;49.880;8.648;2022-12-29T08:43:49;12.20;99.90
29241;DHT22;16268;49.880;8.648;2022-12-29T08:46:15;12.20;99.90
29241;DHT22;16268;49.880;8.648;2022-12-29T08:48:41;12.20;99.90
29241;DHT22;16268;49.880;8.648;2022-12-29T08:51:07;12.20;99.90
29241;DHT22;16268;49.880;8.648;2022-12-29T08:53:33;12.30;99.90
29241;DHT22;16268;49.880;8.648;2022-12-29T08:56:00;12.20;99.90
29241;DHT22;16268;49.880;8.648;2022-12-29T08:58:26;12.20;99.90
29241;DHT22;16268;49.880;8.648;2022-12-29T09:00:54;12.20;99.90
29241;DHT22;16268;49.880;8.648;2022-12-29T09:03:19;12.20;99.90
29241;DHT22;16268;49.880;8.648;2022-12-29T09:05:48;12.20;99.90
29241;DHT22;16268;49.880;8.648;2022-12-29T09:08:14;12.30;99.90
29241;DHT22;16268;49.880;8.648;2022-12-29T09:10:40;12.30;99.90
29241;DHT22;16268;49.880;8.648;2022-12-29T09:13:05;12.30;99.90
29241;DHT22;16268;49.880;8.648;2022-12-29T09:15:31;12.40;99.90
29241;DHT22;16268;49.880;8.648;2022-12-29T09:17:57;12.40;99.90
29241;DHT22;16268;49.880;8.648;2022-12-29T09:20:22;12.40;99.90
29241;DHT22;16268;49.880;8.648;2022-12-29T09:22:48;12.40;99.90
29241;DHT22;16268;49.880;8.648;2022-12-29T09:25:13;12.40;99.90
29241;DHT22;16268;49.880;8.648;2022-12-29T09:27:40;12.40;99.90
29241;DHT22;16268;49.880;8.648;2022-12-29T09:30:08;12.40;99.90
29241;DHT22;16268;49.880;8.648;2022-12-29T09:32:34;12.40;99.90
29241;DHT22;16268;49.880;8.648;2022-12-29T09:35:00;12.50;99.90
29241;DHT22;16268;49.880;8.648;2022-12-29T09:37:26;12.40;99.90
29241;DHT22;16268;49.880;8.648;2022-12-29T09:39:52;12.40;99.90
29241;DHT22;16268;49.880;8.648;2022-12-29T09:42:38;12.50;99.90
29241;DHT22;16268;49.880;8.648;2022-12-29T09:47:34;12.80;99.90
29241;DHT22;16268;49.880;8.648;2022-12-29T09:52:43;13.00;99.90
29241;DHT22;16268;49.880;8.648;2022-12-29T09:55:16;13.10;99.90
29241;DHT22;16268;49.880;8.648;2022-12-29T09:57:58;13.10;99.90
29241;DHT22;16268;49.880;8.648;2022-12-29T10:03:16;13.20;99.90
29241;DHT22;16268;49.880;8.648;2022-12-29T10:05:50;13.20;99.90
29241;DHT22;16268;49.880;8.648;2022-12-29T10:14:36;13.60;99.90
29241;DHT22;16268;49.880;8.648;2022-12-29T10:17:27;13.70;99.90
29241;DHT22;16268;49.880;8.648;2022-12-29T10:20:02;13.70;99.90
29241;DHT22;16268;49.880;8.648;2022-12-29T10:25:22;13.60;99.90
29241;DHT22;16268;49.880;8.648;2022-12-29T10:27:51;13.60;99.90
29241;DHT22;16268;49.880;8.648;2022-12-29T10:30:18;13.40;99.90
29241;DHT22;16268;49.880;8.648;2022-12-29T10:32:58;13.30;99.90
29241;DHT22;16268;49.880;8.648;2022-12-29T10:35:35;13.20;99.90
29241;DHT22;16268;49.880;8.648;2022-12-29T10:40:51;12.50;99.90
29241;DHT22;16268;49.880;8.648;2022-12-29T10:43:28;12.20;99.90
29241;DHT22;16268;49.880;8.648;2022-12-29T10:45:57;11.90;99.90
29241;DHT22;16268;49.880;8.648;2022-12-29T10:48:32;11.80;99.90
29241;DHT22;16268;49.880;8.648;2022-12-29T10:51:06;11.80;99.90
29241;DHT22;16268;49.880;8.648;2022-12-29T10:53:40;11.80;99.90
29241;DHT22;16268;49.880;8.648;2022-12-29T10:56:20;11.80;99.90
29241;DHT22;16268;49.880;8.648;2022-12-29T10:58:48;12.00;99.90
29241;DHT22;16268;49.880;8.648;2022-12-29T11:01:15;11.90;99.90
29241;DHT22;16268;49.880;8.648;2022-12-29T11:09:35;11.90;99.90
29241;DHT22;16268;49.880;8.648;2022-12-29T11:11:53;12.00;99.90
29241;DHT22;16268;49.880;8.648;2022-12-29T11:14:28;12.10;99.90
29241;DHT22;16268;49.880;8.648;2022-12-29T11:17:03;12.10;99.90
29241;DHT22;16268;49.880;8.648;2022-12-29T11:19:31;12.10;99.90
29241;DHT22;16268;49.880;8.648;2022-12-29T11:22:29;12.10;99.90
29241;DHT22;16268;49.880;8.648;2022-12-29T11:25:06;12.20;99.90
29241;DHT22;16268;49.880;8.648;2022-12-29T11:27:35;12.30;99.90
29241;DHT22;16268;49.880;8.648;2022-12-29T11:30:00;12.20;99.90
29241;DHT22;16268;49.880;8.648;2022-12-29T11:32:28;12.20;99.90
29241;DHT22;16268;49.880;8.648;2022-12-29T11:34:57;12.20;99.90
29241;DHT22;16268;49.880;8.648;2022-12-29T11:40:02;12.00;99.90
29241;DHT22;16268;49.880;8.648;2022-12-29T11:42:38;11.90;99.90
29241;DHT22;16268;49.880;8.648;2022-12-29T11:45:27;11.90;99.90
29241;DHT22;16268;49.880;8.648;2022-12-29T11:47:57;12.00;99.90
29241;DHT22;16268;49.880;8.648;2022-12-29T11:50:29;12.00;99.90
29241;DHT22;16268;49.880;8.648;2022-12-29T11:53:14;12.00;99.90
29241;DHT22;16268;49.880;8.648;2022-12-29T11:55:50;12.00;99.90
29241;DHT22;16268;49.880;8.648;2022-12-29T11:58:16;12.10;99.90
29241;DHT22;16268;49.880;8.648;2022-12-29T12:00:43;12.00;99.90
29241;DHT22;16268;49.880;8.648;2022-12-29T12:03:22;12.10;99.90
29241;DHT22;16268;49.880;8.648;2022-12-29T12:05:57;12.00;99.90
29241;DHT22;16268;49.880;8.648;2022-12-29T12:08:29;12.20;99.90
29241;DHT22;16268;49.880;8.648;2022-12-29T12:11:08;12.10;99.90
29241;DHT22;16268;49.880;8.648;2022-12-29T12:13:40;12.10;99.90
29241;DHT22;16268;49.880;8.648;2022-12-29T12:16:13;12.00;99.90
29241;DHT22;16268;49.880;8.648;2022-12-29T12:18:53;12.00;99.90
29241;DHT22;16268;49.880;8.648;2022-12-29T12:21:39;12.10;99.90
29241;DHT22;16268;49.880;8.648;2022-12-29T12:27:13;12.10;99.90
29241;DHT22;16268;49.880;8.648;2022-12-29T12:30:04;12.10;99.90
29241;DHT22;16268;49.880;8.648;2022-12-29T12:32:50;12.10;99.90
29241;DHT22;16268;49.880;8.648;2022-12-29T12:41:12;12.30;99.90
29241;DHT22;16268;49.880;8.648;2022-12-29T12:43:49;12.30;99.90
29241;DHT22;16268;49.880;8.648;2022-12-29T12:55:25;12.40;99.90
29241;DHT22;16268;49.880;8.648;2022-12-29T13:03:47;12.40;99.90
29241;DHT22;16268;49.880;8.648;2022-12-29T13:06:20;12.40;99.90
29241;DHT22;16268;49.880;8.648;2022-12-29T13:20:33;14.30;99.90
29241;DHT22;16268;49.880;8.648;2022-12-29T13:26:21;13.50;99.90
29241;DHT22;16268;49.880;8.648;2022-12-29T13:28:58;13.20;99.90
29241;DHT22;16268;49.880;8.648;2022-12-29T13:31:38;12.90;99.90
29241;DHT22;16268;49.880;8.648;2022-12-29T13:37:00;12.70;99.90
29241;DHT22;16268;49.880;8.648;2022-12-29T13:39:28;12.60;99.90
29241;DHT22;16268;49.880;8.648;2022-12-29T13:41:57;12.60;99.90
29241;DHT22;16268;49.880;8.648;2022-12-29T13:44:31;12.60;99.90
29241;DHT22;16268;49.880;8.648;2022-12-29T13:47:01;12.50;99.90
29241;DHT22;16268;49.880;8.648;2022-12-29T13:49:28;12.50;99.90
29241;DHT22;16268;49.880;8.648;2022-12-29T13:52:02;12.50;99.90
29241;DHT22;16268;49.880;8.648;2022-12-29T13:54:40;12.50;99.90
29241;DHT22;16268;49.880;8.648;2022-12-29T13:57:15;12.40;99.90
29241;DHT22;16268;49.880;8.648;2022-12-29T13:59:59;12.40;99.90
29241;DHT22;16268;49.880;8.648;2022-12-29T14:07:56;12.40;99.90
29241;DHT22;16268;49.880;8.648;2022-12-29T14:10:35;12.40;99.90
29241;DHT22;16268;49.880;8.648;2022-12-29T14:13:12;12.40;99.90
29241;DHT22;16268;49.880;8.648;2022-12-29T14:15:40;12.40;99.90
29241;DHT22;16268;49.880;8.648;2022-12-29T14:18:23;12.40;99.90
29241;DHT22;16268;49.880;8.648;2022-12-29T14:20:56;12.30;99.90
29241;DHT22;16268;49.880;8.648;2022-12-29T14:28:45;12.40;99.90
29241;DHT22;16268;49.880;8.648;2022-12-29T14:37:03;12.40;99.90
29241;DHT22;16268;49.880;8.648;2022-12-29T14:39:42;12.40;99.90
29241;DHT22;16268;49.880;8.648;2022-12-29T14:42:12;12.40;99.90
29241;DHT22;16268;49.880;8.648;2022-12-29T14:47:31;12.30;99.90
29241;DHT22;16268;49.880;8.648;2022-12-29T14:50:04;12.30;99.90
29241;DHT22;16268;49.880;8.648;2022-12-29T14:52:31;12.30;99.90
29241;DHT22;16268;49.880;8.648;2022-12-29T14:57:41;12.30;99.90
29241;DHT22;16268;49.880;8.648;2022-12-29T15:02:41;12.30;99.90
29241;DHT22;16268;49.880;8.648;2022-12-29T15:05:32;12.30;99.90
29241;DHT22;16268;49.880;8.648;2022-12-29T15:07:58;12.30;99.90
29241;DHT22;16268;49.880;8.648;2022-12-29T15:10:26;12.20;99.90
29241;DHT22;16268;49.880;8.648;2022-12-29T15:13:03;12.20;99.90
29241;DHT22;16268;49.880;8.648;2022-12-29T15:15:36;12.20;99.90
29241;DHT22;16268;49.880;8.648;2022-12-29T15:20:57;11.90;99.90
29241;DHT22;16268;49.880;8.648;2022-12-29T15:23:24;11.80;99.90
29241;DHT22;16268;49.880;8.648;2022-12-29T15:25:57;11.70;99.90
29241;DHT22;16268;49.880;8.648;2022-12-29T15:28:23;11.70;99.90
29241;DHT22;16268;49.880;8.648;2022-12-29T15:30:54;11.60;99.90
29241;DHT22;16268;49.880;8.648;2022-12-29T15:33:26;11.60;99.90
29241;DHT22;16268;49.880;8.648;2022-12-29T15:35:53;11.60;99.90
29241;DHT22;16268;49.880;8.648;2022-12-29T15:38:28;11.50;99.90
29241;DHT22;16268;49.880;8.648;2022-12-29T15:40:58;11.40;99.90
29241;DHT22;16268;49.880;8.648;2022-12-29T15:46:10;11.20;99.90
29241;DHT22;16268;49.880;8.648;2022-12-29T15:48:38;11.10;99.90
29241;DHT22;16268;49.880;8.648;2022-12-29T15:51:19;11.00;99.90
29241;DHT22;16268;49.880;8.648;2022-12-29T15:53:48;11.00;99.90
29241;DHT22;16268;49.880;8.648;2022-12-29T15:56:15;11.00;99.90
29241;DHT22;16268;49.880;8.648;2022-12-29T15:58:52;11.00;99.90
29241;DHT22;16268;49.880;8.648;2022-12-29T16:03:57;11.00;99.90
29241;DHT22;16268;49.880;8.648;2022-12-29T16:09:03;10.90;99.90
29241;DHT22;16268;49.880;8.648;2022-12-29T16:11:41;10.80;99.90
29241;DHT22;16268;49.880;8.648;2022-12-29T16:14:14;10.80;99.90
29241;DHT22;16268;49.880;8.648;2022-12-29T16:16:42;10.70;99.90
29241;DHT22;16268;49.880;8.648;2022-12-29T16:19:19;10.60;99.90
29241;DHT22;16268;49.880;8.648;2022-12-29T16:21:47;10.50;99.90
29241;DHT22;16268;49.880;8.648;2022-12-29T16:24:15;10.50;99.90
29241;DHT22;16268;49.880;8.648;2022-12-29T16:27:07;10.50;99.90
29241;DHT22;16268;49.880;8.648;2022-12-29T16:29:33;10.50;99.90
29241;DHT22;16268;49.880;8.648;2022-12-29T16:32:00;10.40;99.90
29241;DHT22;16268;49.880;8.648;2022-12-29T16:34:34;10.40;99.90
29241;DHT22;16268;49.880;8.648;2022-12-29T16:37:28;10.40;99.90
29241;DHT22;16268;49.880;8.648;2022-12-29T16:39:54;10.40;99.90
29241;DHT22;16268;49.880;8.648;2022-12-29T16:50:32;10.40;99.90
29241;DHT22;16268;49.880;8.648;2022-12-29T16:52:58;10.40;99.90
29241;DHT22;16268;49.880;8.648;2022-12-29T16:55:24;10.40;99.90
29241;DHT22;16268;49.880;8.648;2022-12-29T16:57:52;10.40;99.90
29241;DHT22;16268;49.880;8.648;2022-12-29T17:00:24;10.40;99.90
29241;DHT22;16268;49.880;8.648;2022-12-29T17:02:51;10.30;99.90
29241;DHT22;16268;49.880;8.648;2022-12-29T17:05:18;10.30;99.90
29241;DHT22;16268;49.880;8.648;2022-12-29T17:07:44;10.30;99.90
29241;DHT22;16268;49.880;8.648;2022-12-29T17:10:11;10.30;99.90
29241;DHT22;16268;49.880;8.648;2022-12-29T17:12:38;10.40;99.90
29241;DHT22;16268;49.880;8.648;2022-12-29T17:15:06;10.30;99.90
29241;DHT22;16268;49.880;8.648;2022-12-29T17:17:45;10.30;99.90
29241;DHT22;16268;49.880;8.648;2022-12-29T17:20:21;10.30;99.90
29241;DHT22;16268;49.880;8.648;2022-12-29T17:22:48;10.30;99.90
29241;DHT22;16268;49.880;8.648;2022-12-29T17:25:19;10.30;99.90
29241;DHT22;16268;49.880;8.648;2022-12-29T17:28:00;10.30;99.90
29241;DHT22;16268;49.880;8.648;2022-12-29T17:30:28;10.30;99.90
29241;DHT22;16268;49.880;8.648;2022-12-29T17:33:03;10.30;99.90
29241;DHT22;16268;49.880;8.648;2022-12-29T17:35:29;10.30;99.90
29241;DHT22;16268;49.880;8.648;2022-12-29T17:37:54;10.30;99.90
29241;DHT22;16268;49.880;8.648;2022-12-29T17:40:25;10.30;99.90
29241;DHT22;16268;49.880;8.648;2022-12-29T17:42:53;10.30;99.90
29241;DHT22;16268;49.880;8.648;2022-12-29T17:45:25;10.30;99.90
29241;DHT22;16268;49.880;8.648;2022-12-29T17:47:52;10.30;99.90
29241;DHT22;16268;49.880;8.648;2022-12-29T17:50:24;10.30;99.90
29241;DHT22;16268;49.880;8.648;2022-12-29T17:53:01;10.30;99.90
29241;DHT22;16268;49.880;8.648;2022-12-29T17:55:27;10.30;99.90
29241;DHT22;16268;49.880;8.648;2022-12-29T17:57:53;10.30;99.90
29241;DHT22;16268;49.880;8.648;2022-12-29T18:00:21;10.30;99.90
29241;DHT22;16268;49.880;8.648;2022-12-29T18:02:52;10.30;99.90
29241;DHT22;16268;49.880;8.648;2022-12-29T18:05:29;10.30;99.90
29241;DHT22;16268;49.880;8.648;2022-12-29T18:07:58;10.30;99.90
29241;DHT22;16268;49.880;8.648;2022-12-29T18:10:26;10.30;99.90
29241;DHT22;16268;49.880;8.648;2022-12-29T18:12:54;10.30;99.90
29241;DHT22;16268;49.880;8.648;2022-12-29T18:15:26;10.30;99.90